sensor_id;sensor_type;location;lat;lon;timestamp;pressure;altitude;pressure_sealevel;temperature;humidity
51526;BME280;37611;51.794;21.590;2023-08-08T00:02:11;99122.14;;;14.85;100.00
51526;BME280;37611;51.794;21.590;2023-08-08T00:06:13;99130.03;;;14.81;100.00
51526;BME280;37611;51.794;21.590;2023-08-08T00:10:15;99133.95;;;14.78;100.00
51526;BME280;37611;51.794;21.590;2023-08-08T00:14:16;99142.27;;;14.76;100.00
51526;BME280;37611;51.794;21.590;2023-08-08T00:18:18;99143.80;;;14.77;100.00
51526;BME280;37611;51.794;21.590;2023-08-08T00:22:20;99145.72;;;14.77;100.00
51526;BME280;37611;51.794;21.590;2023-08-08T00:26:22;99150.84;;;14.77;100.00
51526;BME280;37611;51.794;21.590;2023-08-08T00:30:24;99147.71;;;14.75;100.00
51526;BME280;37611;51.794;21.590;2023-08-08T00:34:25;99150.98;;;14.73;100.00
51526;BME280;37611;51.794;21.590;2023-08-08T00:38:27;99153.58;;;14.69;100.00
51526;BME280;37611;51.794;21.590;2023-08-08T00:42:28;99158.05;;;14.65;100.00
51526;BME280;37611;51.794;21.590;2023-08-08T00:46:31;99159.86;;;14.60;100.00
51526;BME280;37611;51.794;21.590;2023-08-08T00:50:33;99161.36;;;14.58;100.00
51526;BME280;37611;51.794;21.590;2023-08-08T00:54:36;99169.08;;;14.57;100.00
51526;BME280;37611;51.794;21.590;2023-08-08T00:58:38;99178.39;;;14.55;100.00
51526;BME280;37611;51.794;21.590;2023-08-08T01:02:39;99180.64;;;14.51;100.00
51526;BME280;37611;51.794;21.590;2023-08-08T01:11:09;99189.58;;;14.44;100.00
51526;BME280;37611;51.794;21.590;2023-08-08T01:15:12;99192.66;;;14.42;100.00
51526;BME280;37611;51.794;21.590;2023-08-08T01:19:18;99199.30;;;14.38;100.00
51526;BME280;37611;51.794;21.590;2023-08-08T01:27:35;99205.14;;;14.39;100.00
51526;BME280;37611;51.794;21.590;2023-08-08T01:31:37;99208.95;;;14.40;100.00
51526;BME280;37611;51.794;21.590;2023-08-08T01:40:17;99220.98;;;14.41;100.00
51526;BME280;37611;51.794;21.590;2023-08-08T01:44:21;99222.95;;;14.38;100.00
51526;BME280;37611;51.794;21.590;2023-08-08T01:48:24;99232.09;;;14.37;100.00
51526;BME280;37611;51.794;21.590;2023-08-08T01:52:26;99238.21;;;14.34;100.00
51526;BME280;37611;51.794;21.590;2023-08-08T01:56:28;99241.02;;;14.33;100.00
51526;BME280;37611;51.794;21.590;2023-08-08T02:00:30;99243.13;;;14.34;100.00
51526;BME280;37611;51.794;21.590;2023-08-08T02:04:32;99244.79;;;14.38;100.00
51526;BME280;37611;51.794;21.590;2023-08-08T02:08:33;99249.07;;;14.40;100.00
51526;BME280;37611;51.794;21.590;2023-08-08T02:12:35;99250.00;;;14.42;100.00
51526;BME280;37611;51.794;21.590;2023-08-08T02:16:37;99250.82;;;14.42;100.00
51526;BME280;37611;51.794;21.590;2023-08-08T02:20:41;99257.67;;;14.38;100.00
51526;BME280;37611;51.794;21.590;2023-08-08T02:24:43;99265.13;;;14.36;100.00
51526;BME280;37611;51.794;21.590;2023-08-08T02:28:45;99267.42;;;14.36;100.00
51526;BME280;37611;51.794;21.590;2023-08-08T02:32:48;99270.05;;;14.35;100.00
51526;BME280;37611;51.794;21.590;2023-08-08T02:36:49;99278.84;;;14.31;100.00
51526;BME280;37611;51.794;21.590;2023-08-08T02:40:51;99282.75;;;14.26;100.00
51526;BME280;37611;51.794;21.590;2023-08-08T02:44:53;99290.88;;;14.20;100.00
51526;BME280;37611;51.794;21.590;2023-08-08T02:48:55;99295.23;;;14.18;100.00
51526;BME280;37611;51.794;21.590;2023-08-08T02:52:57;99299.13;;;14.16;100.00
51526;BME280;37611;51.794;21.590;2023-08-08T02:56:59;99302.98;;;14.16;100.00
51526;BME280;37611;51.794;21.590;2023-08-08T03:01:00;99308.67;;;14.13;100.00
51526;BME280;37611;51.794;21.590;2023-08-08T03:05:02;99316.55;;;14.09;100.00
51526;BME280;37611;51.794;21.590;2023-08-08T03:09:04;99320.45;;;14.03;100.00
51526;BME280;37611;51.794;21.590;2023-08-08T03:13:07;99325.72;;;14.01;100.00
51526;BME280;37611;51.794;21.590;2023-08-08T03:17:08;99332.02;;;13.98;100.00
51526;BME280;37611;51.794;21.590;2023-08-08T03:21:10;99341.34;;;13.94;100.00
51526;BME280;37611;51.794;21.590;2023-08-08T03:25:12;99347.18;;;13.88;100.00
51526;BME280;37611;51.794;21.590;2023-08-08T03:29:13;99357.30;;;13.86;100.00
51526;BME280;37611;51.794;21.590;2023-08-08T03:33:15;99366.29;;;13.82;100.00
51526;BME280;37611;51.794;21.590;2023-08-08T03:37:17;99372.04;;;13.79;100.00
51526;BME280;37611;51.794;21.590;2023-08-08T03:41:19;99382.05;;;13.78;100.00
51526;BME280;37611;51.794;21.590;2023-08-08T03:45:21;99383.91;;;13.77;100.00
51526;BME280;37611;51.794;21.590;2023-08-08T03:49:23;99387.59;;;13.80;100.00
51526;BME280;37611;51.794;21.590;2023-08-08T03:53:24;99395.82;;;13.82;100.00
51526;BME280;37611;51.794;21.590;2023-08-08T03:57:26;99400.52;;;13.85;100.00
51526;BME280;37611;51.794;21.590;2023-08-08T04:01:28;99407.71;;;13.81;100.00
51526;BME280;37611;51.794;21.590;2023-08-08T04:05:30;99411.72;;;13.77;100.00
51526;BME280;37611;51.794;21.590;2023-08-08T04:09:32;99410.48;;;13.76;100.00
51526;BME280;37611;51.794;21.590;2023-08-08T04:13:34;99417.64;;;13.76;100.00
51526;BME280;37611;51.794;21.590;2023-08-08T04:17:35;99426.49;;;13.84;100.00
51526;BME280;37611;51.794;21.590;2023-08-08T04:21:37;99432.05;;;14.02;100.00
51526;BME280;37611;51.794;21.590;2023-08-08T04:25:39;99435.94;;;14.17;100.00
51526;BME280;37611;51.794;21.590;2023-08-08T04:29:41;99441.10;;;14.36;100.00
51526;BME280;37611;51.794;21.590;2023-08-08T04:33:43;99446.60;;;14.53;100.00
51526;BME280;37611;51.794;21.590;2023-08-08T04:37:45;99450.00;;;14.65;100.00
51526;BME280;37611;51.794;21.590;2023-08-08T04:41:46;99449.90;;;14.88;100.00
51526;BME280;37611;51.794;21.590;2023-08-08T04:45:48;99454.13;;;15.13;99.49
51526;BME280;37611;51.794;21.590;2023-08-08T04:49:50;99452.45;;;15.29;98.19
51526;BME280;37611;51.794;21.590;2023-08-08T04:53:51;99459.30;;;15.46;97.21
51526;BME280;37611;51.794;21.590;2023-08-08T04:57:53;99470.61;;;15.61;95.99
51526;BME280;37611;51.794;21.590;2023-08-08T05:01:55;99475.07;;;15.81;95.40
51526;BME280;37611;51.794;21.590;2023-08-08T05:05:56;99479.09;;;15.88;94.76
51526;BME280;37611;51.794;21.590;2023-08-08T05:10:00;99475.61;;;15.66;94.84
51526;BME280;37611;51.794;21.590;2023-08-08T05:14:02;99482.56;;;15.57;94.26
51526;BME280;37611;51.794;21.590;2023-08-08T05:18:04;99482.04;;;15.73;93.29
51526;BME280;37611;51.794;21.590;2023-08-08T05:22:06;99486.09;;;15.75;93.75
51526;BME280;37611;51.794;21.590;2023-08-08T05:26:08;99483.30;;;15.74;92.84
51526;BME280;37611;51.794;21.590;2023-08-08T05:30:10;99492.41;;;15.61;92.56
51526;BME280;37611;51.794;21.590;2023-08-08T05:34:12;99492.67;;;15.71;92.39
51526;BME280;37611;51.794;21.590;2023-08-08T05:38:14;99499.06;;;15.70;92.21
51526;BME280;37611;51.794;21.590;2023-08-08T05:42:15;99501.92;;;15.73;92.33
51526;BME280;37611;51.794;21.590;2023-08-08T05:46:17;99502.09;;;15.72;92.23
51526;BME280;37611;51.794;21.590;2023-08-08T05:50:21;99513.77;;;15.69;92.17
51526;BME280;37611;51.794;21.590;2023-08-08T05:54:23;99515.98;;;15.64;91.54
51526;BME280;37611;51.794;21.590;2023-08-08T05:58:25;99515.72;;;15.60;91.44
51526;BME280;37611;51.794;21.590;2023-08-08T06:02:26;99527.30;;;15.59;91.82
51526;BME280;37611;51.794;21.590;2023-08-08T06:06:28;99526.98;;;15.65;91.70
51526;BME280;37611;51.794;21.590;2023-08-08T06:10:30;99535.98;;;15.62;91.09
51526;BME280;37611;51.794;21.590;2023-08-08T06:14:32;99527.95;;;15.89;90.50
51526;BME280;37611;51.794;21.590;2023-08-08T06:18:33;99537.85;;;16.01;89.80
51526;BME280;37611;51.794;21.590;2023-08-08T06:22:36;99536.08;;;16.08;88.60
51526;BME280;37611;51.794;21.590;2023-08-08T06:26:39;99535.16;;;16.03;89.02
51526;BME280;37611;51.794;21.590;2023-08-08T06:30:40;99547.69;;;16.03;88.91
51526;BME280;37611;51.794;21.590;2023-08-08T06:34:42;99546.73;;;16.02;89.61
51526;BME280;37611;51.794;21.590;2023-08-08T06:38:44;99549.43;;;16.04;89.73
51526;BME280;37611;51.794;21.590;2023-08-08T06:42:46;99554.02;;;16.10;89.08
51526;BME280;37611;51.794;21.590;2023-08-08T06:46:47;99558.74;;;16.09;89.27
51526;BME280;37611;51.794;21.590;2023-08-08T06:50:49;99557.31;;;16.19;89.17
51526;BME280;37611;51.794;21.590;2023-08-08T06:54:51;99556.45;;;16.36;87.91
51526;BME280;37611;51.794;21.590;2023-08-08T06:58:53;99559.03;;;16.54;86.35
51526;BME280;37611;51.794;21.590;2023-08-08T07:02:55;99554.19;;;16.67;86.39
51526;BME280;37611;51.794;21.590;2023-08-08T07:06:57;99557.20;;;16.79;85.64
51526;BME280;37611;51.794;21.590;2023-08-08T07:10:59;99562.88;;;16.88;84.02
51526;BME280;37611;51.794;21.590;2023-08-08T07:15:01;99567.39;;;16.74;83.41
51526;BME280;37611;51.794;21.590;2023-08-08T07:19:03;99566.30;;;16.69;84.35
51526;BME280;37611;51.794;21.590;2023-08-08T07:23:06;99558.27;;;16.70;84.11
51526;BME280;37611;51.794;21.590;2023-08-08T07:27:10;99565.63;;;16.51;84.00
51526;BME280;37611;51.794;21.590;2023-08-08T07:31:12;99562.26;;;16.62;84.06
51526;BME280;37611;51.794;21.590;2023-08-08T07:35:14;99568.27;;;16.82;83.23
51526;BME280;37611;51.794;21.590;2023-08-08T07:39:17;99569.30;;;17.00;81.25
51526;BME280;37611;51.794;21.590;2023-08-08T07:43:21;99571.02;;;17.17;81.02
51526;BME280;37611;51.794;21.590;2023-08-08T07:47:22;99568.48;;;17.37;79.42
51526;BME280;37611;51.794;21.590;2023-08-08T07:51:25;99569.84;;;17.55;77.82
51526;BME280;37611;51.794;21.590;2023-08-08T07:55:26;99567.56;;;17.77;78.65
51526;BME280;37611;51.794;21.590;2023-08-08T07:59:28;99569.52;;;17.90;76.05
51526;BME280;37611;51.794;21.590;2023-08-08T08:03:30;99569.94;;;18.01;76.83
51526;BME280;37611;51.794;21.590;2023-08-08T08:07:32;99571.17;;;18.34;76.02
51526;BME280;37611;51.794;21.590;2023-08-08T08:11:34;99572.52;;;18.49;73.76
51526;BME280;37611;51.794;21.590;2023-08-08T08:15:36;99580.63;;;18.48;73.98
51526;BME280;37611;51.794;21.590;2023-08-08T08:19:37;99574.48;;;18.47;72.48
51526;BME280;37611;51.794;21.590;2023-08-08T08:23:43;99569.38;;;18.38;72.28
51526;BME280;37611;51.794;21.590;2023-08-08T08:27:46;99572.61;;;18.31;71.73
51526;BME280;37611;51.794;21.590;2023-08-08T08:31:48;99572.03;;;18.32;72.60
51526;BME280;37611;51.794;21.590;2023-08-08T08:35:50;99574.01;;;18.30;72.45
51526;BME280;37611;51.794;21.590;2023-08-08T08:39:51;99571.54;;;18.26;72.34
51526;BME280;37611;51.794;21.590;2023-08-08T08:43:54;99571.27;;;18.19;71.00
51526;BME280;37611;51.794;21.590;2023-08-08T08:47:56;99577.91;;;18.28;69.85
51526;BME280;37611;51.794;21.590;2023-08-08T08:51:59;99573.56;;;18.36;69.09
51526;BME280;37611;51.794;21.590;2023-08-08T08:56:03;99573.08;;;18.50;69.42
51526;BME280;37611;51.794;21.590;2023-08-08T09:00:06;99568.81;;;18.79;70.13
51526;BME280;37611;51.794;21.590;2023-08-08T09:04:08;99579.36;;;18.88;69.26
51526;BME280;37611;51.794;21.590;2023-08-08T09:08:11;99572.16;;;18.82;69.74
51526;BME280;37611;51.794;21.590;2023-08-08T09:12:14;99574.17;;;18.63;67.90
51526;BME280;37611;51.794;21.590;2023-08-08T09:16:16;99569.94;;;18.42;67.20
51526;BME280;37611;51.794;21.590;2023-08-08T09:20:18;99572.88;;;18.34;68.50
51526;BME280;37611;51.794;21.590;2023-08-08T09:24:20;99574.50;;;18.38;68.45
51526;BME280;37611;51.794;21.590;2023-08-08T09:28:22;99578.76;;;18.31;67.22
51526;BME280;37611;51.794;21.590;2023-08-08T09:32:29;99578.44;;;18.10;67.14
51526;BME280;37611;51.794;21.590;2023-08-08T09:36:33;99584.57;;;18.03;67.50
51526;BME280;37611;51.794;21.590;2023-08-08T09:40:38;99583.42;;;18.11;66.84
51526;BME280;37611;51.794;21.590;2023-08-08T09:44:42;99584.34;;;18.19;66.01
51526;BME280;37611;51.794;21.590;2023-08-08T09:48:45;99587.98;;;18.24;65.72
51526;BME280;37611;51.794;21.590;2023-08-08T09:52:49;99586.71;;;18.41;64.82
51526;BME280;37611;51.794;21.590;2023-08-08T09:56:51;99590.33;;;18.54;64.03
51526;BME280;37611;51.794;21.590;2023-08-08T10:00:54;99590.33;;;18.54;62.22
51526;BME280;37611;51.794;21.590;2023-08-08T10:04:56;99588.98;;;18.76;61.02
51526;BME280;37611;51.794;21.590;2023-08-08T10:09:01;99586.82;;;18.81;58.19
51526;BME280;37611;51.794;21.590;2023-08-08T10:13:05;99598.14;;;18.70;57.96
51526;BME280;37611;51.794;21.590;2023-08-08T10:17:13;99599.89;;;18.70;60.61
51526;BME280;37611;51.794;21.590;2023-08-08T10:21:17;99592.58;;;18.98;60.58
51526;BME280;37611;51.794;21.590;2023-08-08T10:29:26;99590.48;;;19.14;62.21
51526;BME280;37611;51.794;21.590;2023-08-08T10:33:40;99598.30;;;19.26;60.87
51526;BME280;37611;51.794;21.590;2023-08-08T10:37:52;99599.98;;;19.04;58.09
51526;BME280;37611;51.794;21.590;2023-08-08T10:41:54;99600.61;;;18.93;59.27
51526;BME280;37611;51.794;21.590;2023-08-08T10:46:03;99596.64;;;18.98;60.25
51526;BME280;37611;51.794;21.590;2023-08-08T10:50:12;99594.08;;;19.21;59.89
51526;BME280;37611;51.794;21.590;2023-08-08T10:54:19;99600.38;;;19.25;57.41
51526;BME280;37611;51.794;21.590;2023-08-08T10:58:21;99597.48;;;19.40;57.16
51526;BME280;37611;51.794;21.590;2023-08-08T11:02:23;99596.96;;;19.42;56.46
51526;BME280;37611;51.794;21.590;2023-08-08T11:06:25;99595.36;;;19.38;56.22
51526;BME280;37611;51.794;21.590;2023-08-08T11:10:28;99599.27;;;19.54;56.24
51526;BME280;37611;51.794;21.590;2023-08-08T11:14:32;99595.79;;;19.80;55.03
51526;BME280;37611;51.794;21.590;2023-08-08T11:18:34;99591.23;;;20.08;54.70
51526;BME280;37611;51.794;21.590;2023-08-08T11:22:36;99593.84;;;20.32;53.10
51526;BME280;37611;51.794;21.590;2023-08-08T11:26:40;99595.26;;;20.40;51.83
51526;BME280;37611;51.794;21.590;2023-08-08T11:30:45;99604.24;;;20.17;52.20
51526;BME280;37611;51.794;21.590;2023-08-08T11:34:47;99601.79;;;20.03;53.33
51526;BME280;37611;51.794;21.590;2023-08-08T11:38:50;99602.43;;;20.17;54.52
51526;BME280;37611;51.794;21.590;2023-08-08T11:42:56;99605.41;;;20.22;52.86
51526;BME280;37611;51.794;21.590;2023-08-08T11:47:02;99601.89;;;20.11;53.46
51526;BME280;37611;51.794;21.590;2023-08-08T11:51:05;99607.32;;;20.11;53.73
51526;BME280;37611;51.794;21.590;2023-08-08T11:55:10;99614.23;;;20.08;53.24
51526;BME280;37611;51.794;21.590;2023-08-08T11:59:15;99618.46;;;19.95;53.23
51526;BME280;37611;51.794;21.590;2023-08-08T12:03:18;99628.23;;;19.83;53.50
51526;BME280;37611;51.794;21.590;2023-08-08T12:07:22;99634.50;;;19.70;54.26
51526;BME280;37611;51.794;21.590;2023-08-08T12:11:24;99640.16;;;19.55;54.67
51526;BME280;37611;51.794;21.590;2023-08-08T12:15:30;99638.89;;;19.42;54.69
51526;BME280;37611;51.794;21.590;2023-08-08T12:19:32;99643.77;;;19.31;55.00
51526;BME280;37611;51.794;21.590;2023-08-08T12:23:36;99635.85;;;19.47;56.21
51526;BME280;37611;51.794;21.590;2023-08-08T12:27:38;99629.46;;;19.85;55.00
51526;BME280;37611;51.794;21.590;2023-08-08T12:31:40;99627.44;;;20.13;54.97
51526;BME280;37611;51.794;21.590;2023-08-08T12:35:42;99629.10;;;20.17;54.01
51526;BME280;37611;51.794;21.590;2023-08-08T12:39:44;99628.05;;;20.02;54.17
51526;BME280;37611;51.794;21.590;2023-08-08T12:43:46;99627.41;;;19.90;54.47
51526;BME280;37611;51.794;21.590;2023-08-08T12:47:48;99621.98;;;19.85;54.26
51526;BME280;37611;51.794;21.590;2023-08-08T12:51:50;99624.98;;;19.86;54.42
51526;BME280;37611;51.794;21.590;2023-08-08T12:55:52;99625.50;;;19.99;54.65
51526;BME280;37611;51.794;21.590;2023-08-08T12:59:54;99622.98;;;20.14;53.98
51526;BME280;37611;51.794;21.590;2023-08-08T13:03:56;99621.17;;;20.18;52.57
51526;BME280;37611;51.794;21.590;2023-08-08T13:07:57;99618.85;;;20.20;51.59
51526;BME280;37611;51.794;21.590;2023-08-08T13:11:59;99621.73;;;20.19;50.46
51526;BME280;37611;51.794;21.590;2023-08-08T13:16:01;99623.30;;;20.12;48.84
51526;BME280;37611;51.794;21.590;2023-08-08T13:20:05;99617.52;;;20.16;49.46
51526;BME280;37611;51.794;21.590;2023-08-08T13:24:07;99621.35;;;20.14;49.63
51526;BME280;37611;51.794;21.590;2023-08-08T13:28:11;99628.95;;;20.06;50.71
51526;BME280;37611;51.794;21.590;2023-08-08T13:32:13;99626.57;;;20.03;50.98
51526;BME280;37611;51.794;21.590;2023-08-08T13:36:15;99631.90;;;19.92;51.27
51526;BME280;37611;51.794;21.590;2023-08-08T13:40:19;99633.64;;;19.97;51.61
51526;BME280;37611;51.794;21.590;2023-08-08T13:44:21;99629.59;;;20.08;52.04
51526;BME280;37611;51.794;21.590;2023-08-08T13:48:24;99632.60;;;20.20;51.85
51526;BME280;37611;51.794;21.590;2023-08-08T13:52:26;99638.77;;;20.18;50.42
51526;BME280;37611;51.794;21.590;2023-08-08T13:56:28;99639.24;;;20.06;49.68
51526;BME280;37611;51.794;21.590;2023-08-08T14:00:31;99643.06;;;19.91;50.02
51526;BME280;37611;51.794;21.590;2023-08-08T14:04:33;99648.33;;;19.85;50.38
51526;BME280;37611;51.794;21.590;2023-08-08T14:08:37;99643.05;;;19.84;50.58
51526;BME280;37611;51.794;21.590;2023-08-08T14:12:41;99636.78;;;19.93;51.39
51526;BME280;37611;51.794;21.590;2023-08-08T14:16:43;99640.89;;;20.13;50.70
51526;BME280;37611;51.794;21.590;2023-08-08T14:20:45;99642.69;;;20.24;50.63
51526;BME280;37611;51.794;21.590;2023-08-08T14:24:48;99643.08;;;20.32;51.24
51526;BME280;37611;51.794;21.590;2023-08-08T14:28:49;99642.77;;;20.37;51.60
51526;BME280;37611;51.794;21.590;2023-08-08T14:32:51;99643.58;;;20.45;52.07
51526;BME280;37611;51.794;21.590;2023-08-08T14:36:53;99643.67;;;20.51;51.28
51526;BME280;37611;51.794;21.590;2023-08-08T14:40:55;99646.36;;;20.46;50.93
51526;BME280;37611;51.794;21.590;2023-08-08T14:44:58;99652.70;;;20.31;51.49
51526;BME280;37611;51.794;21.590;2023-08-08T14:48:59;99654.98;;;20.19;52.01
51526;BME280;37611;51.794;21.590;2023-08-08T14:53:01;99657.52;;;20.00;52.62
51526;BME280;37611;51.794;21.590;2023-08-08T14:57:03;99657.17;;;19.79;52.60
51526;BME280;37611;51.794;21.590;2023-08-08T15:01:05;99659.55;;;19.67;53.80
51526;BME280;37611;51.794;21.590;2023-08-08T15:05:07;99651.69;;;19.74;53.88
51526;BME280;37611;51.794;21.590;2023-08-08T15:09:09;99646.46;;;19.76;54.56
51526;BME280;37611;51.794;21.590;2023-08-08T15:13:11;99642.98;;;19.79;54.49
51526;BME280;37611;51.794;21.590;2023-08-08T15:17:13;99639.63;;;19.71;54.50
51526;BME280;37611;51.794;21.590;2023-08-08T15:21:15;99639.04;;;19.62;54.94
51526;BME280;37611;51.794;21.590;2023-08-08T15:25:21;99637.28;;;19.51;55.04
51526;BME280;37611;51.794;21.590;2023-08-08T15:29:22;99639.55;;;19.36;55.26
51526;BME280;37611;51.794;21.590;2023-08-08T15:33:24;99640.58;;;19.35;55.54
51526;BME280;37611;51.794;21.590;2023-08-08T15:37:25;99642.08;;;19.37;55.09
51526;BME280;37611;51.794;21.590;2023-08-08T15:41:27;99642.27;;;19.38;55.76
51526;BME280;37611;51.794;21.590;2023-08-08T15:45:29;99644.79;;;19.37;55.55
51526;BME280;37611;51.794;21.590;2023-08-08T15:49:31;99642.44;;;19.29;55.44
51526;BME280;37611;51.794;21.590;2023-08-08T15:53:32;99642.97;;;19.18;55.35
51526;BME280;37611;51.794;21.590;2023-08-08T15:57:36;99641.67;;;19.16;56.31
51526;BME280;37611;51.794;21.590;2023-08-08T16:01:38;99645.70;;;19.20;56.27
51526;BME280;37611;51.794;21.590;2023-08-08T16:05:39;99645.73;;;19.15;56.20
51526;BME280;37611;51.794;21.590;2023-08-08T16:09:41;99652.45;;;19.10;56.81
51526;BME280;37611;51.794;21.590;2023-08-08T16:13:43;99652.38;;;19.04;56.50
51526;BME280;37611;51.794;21.590;2023-08-08T16:17:45;99660.73;;;18.90;56.90
51526;BME280;37611;51.794;21.590;2023-08-08T16:21:47;99660.39;;;18.81;57.11
51526;BME280;37611;51.794;21.590;2023-08-08T16:25:49;99657.48;;;18.81;57.24
51526;BME280;37611;51.794;21.590;2023-08-08T16:29:51;99660.45;;;18.82;56.90
51526;BME280;37611;51.794;21.590;2023-08-08T16:33:52;99658.60;;;18.78;56.67
51526;BME280;37611;51.794;21.590;2023-08-08T16:37:55;99658.67;;;18.71;56.15
51526;BME280;37611;51.794;21.590;2023-08-08T16:41:58;99661.73;;;18.62;56.53
51526;BME280;37611;51.794;21.590;2023-08-08T16:46:01;99671.39;;;18.52;56.60
51526;BME280;37611;51.794;21.590;2023-08-08T16:50:03;99670.14;;;18.40;56.99
51526;BME280;37611;51.794;21.590;2023-08-08T16:54:08;99669.81;;;18.30;57.38
51526;BME280;37611;51.794;21.590;2023-08-08T16:58:11;99669.60;;;18.20;57.70
51526;BME280;37611;51.794;21.590;2023-08-08T17:02:14;99669.27;;;18.10;58.18
51526;BME280;37611;51.794;21.590;2023-08-08T17:06:16;99670.02;;;18.04;58.21
51526;BME280;37611;51.794;21.590;2023-08-08T17:10:18;99674.71;;;17.97;58.51
51526;BME280;37611;51.794;21.590;2023-08-08T17:14:20;99676.63;;;17.92;58.33
51526;BME280;37611;51.794;21.590;2023-08-08T17:18:23;99676.42;;;17.86;58.77
51526;BME280;37611;51.794;21.590;2023-08-08T17:22:26;99676.52;;;17.82;59.04
51526;BME280;37611;51.794;21.590;2023-08-08T17:26:27;99678.48;;;17.76;59.08
51526;BME280;37611;51.794;21.590;2023-08-08T17:30:30;99682.19;;;17.72;59.49
51526;BME280;37611;51.794;21.590;2023-08-08T17:34:36;99685.83;;;17.69;59.80
51526;BME280;37611;51.794;21.590;2023-08-08T17:38:38;99683.98;;;17.64;60.64
51526;BME280;37611;51.794;21.590;2023-08-08T17:42:39;99681.55;;;17.57;61.68
51526;BME280;37611;51.794;21.590;2023-08-08T17:46:41;99680.17;;;17.49;63.20
51526;BME280;37611;51.794;21.590;2023-08-08T17:50:43;99680.94;;;17.41;64.02
51526;BME280;37611;51.794;21.590;2023-08-08T17:54:45;99684.49;;;17.31;64.79
51526;BME280;37611;51.794;21.590;2023-08-08T17:58:47;99691.14;;;17.20;65.94
51526;BME280;37611;51.794;21.590;2023-08-08T18:02:50;99697.70;;;17.06;66.80
51526;BME280;37611;51.794;21.590;2023-08-08T18:06:52;99701.21;;;16.94;66.97
51526;BME280;37611;51.794;21.590;2023-08-08T18:10:54;99704.33;;;16.81;67.98
51526;BME280;37611;51.794;21.590;2023-08-08T18:14:55;99701.49;;;16.72;67.96
51526;BME280;37611;51.794;21.590;2023-08-08T18:18:57;99707.84;;;16.57;68.93
51526;BME280;37611;51.794;21.590;2023-08-08T18:22:59;99710.11;;;16.43;69.52
51526;BME280;37611;51.794;21.590;2023-08-08T18:27:01;99712.33;;;16.32;70.39
51526;BME280;37611;51.794;21.590;2023-08-08T18:31:02;99713.98;;;16.19;70.96
51526;BME280;37611;51.794;21.590;2023-08-08T18:35:04;99717.14;;;16.08;71.22
51526;BME280;37611;51.794;21.590;2023-08-08T18:39:06;99720.91;;;15.99;72.13
51526;BME280;37611;51.794;21.590;2023-08-08T18:43:09;99720.45;;;15.90;73.46
51526;BME280;37611;51.794;21.590;2023-08-08T18:47:11;99723.45;;;15.81;73.47
51526;BME280;37611;51.794;21.590;2023-08-08T18:51:13;99724.91;;;15.71;73.89
51526;BME280;37611;51.794;21.590;2023-08-08T18:55:21;99727.63;;;15.62;75.17
51526;BME280;37611;51.794;21.590;2023-08-08T18:59:25;99727.05;;;15.52;75.03
51526;BME280;37611;51.794;21.590;2023-08-08T19:03:29;99725.84;;;15.44;75.11
51526;BME280;37611;51.794;21.590;2023-08-08T19:07:31;99728.50;;;15.35;76.48
51526;BME280;37611;51.794;21.590;2023-08-08T19:11:36;99731.18;;;15.30;77.23
51526;BME280;37611;51.794;21.590;2023-08-08T19:15:41;99733.85;;;15.25;78.27
51526;BME280;37611;51.794;21.590;2023-08-08T19:19:43;99734.02;;;15.17;78.43
51526;BME280;37611;51.794;21.590;2023-08-08T19:23:48;99734.61;;;15.11;78.57
51526;BME280;37611;51.794;21.590;2023-08-08T19:27:50;99737.20;;;15.02;79.31
51526;BME280;37611;51.794;21.590;2023-08-08T19:31:52;99735.73;;;14.94;79.54
51526;BME280;37611;51.794;21.590;2023-08-08T19:35:56;99733.02;;;14.85;80.11
51526;BME280;37611;51.794;21.590;2023-08-08T19:40:00;99730.98;;;14.79;81.21
51526;BME280;37611;51.794;21.590;2023-08-08T19:44:01;99729.45;;;14.71;81.58
51526;BME280;37611;51.794;21.590;2023-08-08T19:48:03;99735.17;;;14.66;82.00
51526;BME280;37611;51.794;21.590;2023-08-08T19:52:05;99729.82;;;14.61;83.57
51526;BME280;37611;51.794;21.590;2023-08-08T19:56:09;99730.64;;;14.58;84.32
51526;BME280;37611;51.794;21.590;2023-08-08T20:00:15;99731.17;;;14.56;84.69
51526;BME280;37611;51.794;21.590;2023-08-08T20:04:16;99733.42;;;14.54;84.59
51526;BME280;37611;51.794;21.590;2023-08-08T20:08:18;99733.70;;;14.52;84.73
51526;BME280;37611;51.794;21.590;2023-08-08T20:12:20;99730.95;;;14.47;84.77
51526;BME280;37611;51.794;21.590;2023-08-08T20:16:22;99735.70;;;14.40;86.10
51526;BME280;37611;51.794;21.590;2023-08-08T20:20:26;99740.15;;;14.33;86.52
51526;BME280;37611;51.794;21.590;2023-08-08T20:24:29;99734.71;;;14.30;87.17
51526;BME280;37611;51.794;21.590;2023-08-08T20:28:31;99732.21;;;14.26;88.03
51526;BME280;37611;51.794;21.590;2023-08-08T20:32:33;99731.52;;;14.23;88.85
51526;BME280;37611;51.794;21.590;2023-08-08T20:36:35;99729.55;;;14.20;88.43
51526;BME280;37611;51.794;21.590;2023-08-08T20:40:37;99731.93;;;14.19;88.60
51526;BME280;37611;51.794;21.590;2023-08-08T20:44:45;99729.88;;;14.19;89.36
51526;BME280;37611;51.794;21.590;2023-08-08T20:49:06;99729.58;;;14.17;88.39
51526;BME280;37611;51.794;21.590;2023-08-08T20:53:11;99728.24;;;14.12;89.33
51526;BME280;37611;51.794;21.590;2023-08-08T20:57:15;99726.02;;;14.07;90.04
51526;BME280;37611;51.794;21.590;2023-08-08T21:01:17;99722.03;;;14.04;89.57
51526;BME280;37611;51.794;21.590;2023-08-08T21:05:20;99718.67;;;14.02;89.39
51526;BME280;37611;51.794;21.590;2023-08-08T21:09:22;99723.77;;;14.01;90.21
51526;BME280;37611;51.794;21.590;2023-08-08T21:13:28;99724.50;;;14.00;90.52
51526;BME280;37611;51.794;21.590;2023-08-08T21:17:31;99727.29;;;14.01;91.23
51526;BME280;37611;51.794;21.590;2023-08-08T21:21:33;99721.06;;;14.01;91.46